Time;durP1;ratioP1;P1;durP2;ratioP2;P2;SDS_P1;SDS_P2;PMS_P1;PMS_P2;Temp;Humidity;BMP_temperature;BMP_pressure;BME280_temperature;BME280_humidity;BME280_pressure;Samples;Min_cycle;Max_cycle;Signal;HPM_P1;HPM_P2
2022/01/29 00:00:15;;;;;;;25.30;11.70;;;2.70;99.90;;;;;;5074602;28;20053;-87
2022/01/29 00:02:41;;;;;;;21.42;12.15;;;2.70;99.90;;;;;;5073478;28;20020;-88
2022/01/29 00:05:08;;;;;;;17.10;11.32;;;2.70;99.90;;;;;;5079391;28;20086;-88
2022/01/29 00:07:34;;;;;;;21.77;11.05;;;2.70;99.90;;;;;;5092063;28;20043;-87
2022/01/29 00:10:04;;;;;;;20.63;11.90;;;2.70;99.90;;;;;;5087094;28;20032;-87
2022/01/29 00:12:31;;;;;;;22.65;11.40;;;2.70;99.90;;;;;;5076768;28;20031;-87
2022/01/29 00:14:56;;;;;;;23.50;10.88;;;2.70;99.90;;;;;;5074648;28;20514;-89
2022/01/29 00:17:22;;;;;;;19.52;10.85;;;2.70;99.90;;;;;;5088796;28;20024;-89
2022/01/29 00:19:48;;;;;;;17.85;10.77;;;2.70;99.90;;;;;;5074118;28;20024;-89
2022/01/29 00:22:13;;;;;;;19.52;10.23;;;2.70;99.90;;;;;;5069303;28;20405;-89
2022/01/29 00:24:39;;;;;;;18.15;10.35;;;2.70;99.90;;;;;;5069443;28;20040;-89
2022/01/29 00:27:09;;;;;;;18.33;10.50;;;2.70;99.90;;;;;;5072659;28;20086;-89
2022/01/29 00:29:38;;;;;;;19.70;10.50;;;2.70;99.90;;;;;;5072957;28;20040;-89
2022/01/29 00:32:05;;;;;;;16.08;10.23;;;2.70;99.90;;;;;;5085966;28;20416;-89
2022/01/29 00:34:31;;;;;;;19.17;10.25;;;2.70;99.90;;;;;;5070404;28;20082;-89
2022/01/29 00:36:56;;;;;;;23.67;10.48;;;2.70;99.90;;;;;;5073574;28;20435;-89
2022/01/29 00:39:22;;;;;;;20.83;9.98;;;2.60;99.90;;;;;;5071516;28;20020;-89
2022/01/29 00:41:48;;;;;;;17.85;9.80;;;2.60;99.90;;;;;;5068364;28;20092;-88
2022/01/29 00:44:14;;;;;;;18.50;10.50;;;2.60;99.90;;;;;;5069604;28;20123;-90
2022/01/29 00:46:41;;;;;;;18.42;9.32;;;2.60;99.90;;;;;;5061778;28;20420;-88
2022/01/29 00:49:08;;;;;;;19.48;10.07;;;2.60;99.90;;;;;;5065227;28;20036;-90
2022/01/29 00:51:34;;;;;;;18.00;9.52;;;2.70;99.90;;;;;;5075349;28;20028;-89
2022/01/29 00:53:59;;;;;;;18.63;9.43;;;2.70;99.90;;;;;;5071450;28;20035;-89
2022/01/29 00:56:25;;;;;;;19.30;11.30;;;2.70;99.90;;;;;;5072100;28;20035;-89
2022/01/29 00:58:51;;;;;;;14.70;9.05;;;2.70;99.90;;;;;;5060148;28;20027;-89
2022/01/29 01:01:16;;;;;;;17.52;9.23;;;2.70;99.90;;;;;;5072571;28;20039;-89
2022/01/29 01:03:42;;;;;;;16.33;8.95;;;2.70;99.90;;;;;;5058776;28;20068;-89
2022/01/29 01:06:07;;;;;;;17.48;10.00;;;2.60;99.90;;;;;;5082867;28;20020;-86
2022/01/29 01:08:33;;;;;;;15.70;9.50;;;2.60;99.90;;;;;;5094230;28;20021;-87
2022/01/29 01:10:59;;;;;;;17.70;9.30;;;2.60;99.90;;;;;;5105791;28;20013;-86
2022/01/29 01:13:25;;;;;;;17.80;8.65;;;2.60;99.90;;;;;;5065062;28;20020;-88
2022/01/29 01:15:51;;;;;;;16.60;8.57;;;2.60;99.90;;;;;;5090599;28;20390;-87
2022/01/29 01:18:17;;;;;;;15.88;8.32;;;2.60;99.90;;;;;;5069845;28;20023;-87
2022/01/29 01:20:43;;;;;;;15.77;8.60;;;2.60;99.90;;;;;;5092524;28;20024;-87
2022/01/29 01:23:08;;;;;;;17.60;8.65;;;2.60;99.90;;;;;;5092400;28;20089;-87
2022/01/29 01:25:34;;;;;;;13.82;8.80;;;2.60;99.90;;;;;;5082625;28;20032;-87
2022/01/29 01:28:00;;;;;;;16.10;8.70;;;2.60;99.90;;;;;;5090782;28;20044;-87
2022/01/29 01:30:25;;;;;;;16.55;8.88;;;2.60;99.90;;;;;;5072976;28;20564;-87
2022/01/29 01:32:51;;;;;;;15.48;8.57;;;2.60;99.90;;;;;;5067356;28;20121;-87
2022/01/29 01:35:25;;;;;;;15.93;8.95;;;2.60;99.90;;;;;;5073939;28;20054;-87
2022/01/29 01:37:56;;;;;;;15.48;7.85;;;2.60;99.90;;;;;;5090254;28;20016;-86
2022/01/29 01:40:23;;;;;;;16.27;7.90;;;2.60;99.90;;;;;;5073447;28;20039;-87
2022/01/29 01:42:49;;;;;;;13.25;8.13;;;2.60;99.90;;;;;;5090903;28;20012;-87
2022/01/29 01:45:15;;;;;;;13.70;8.60;;;2.60;99.90;;;;;;5081675;28;20501;-86
2022/01/29 01:47:40;;;;;;;14.80;8.43;;;2.60;99.90;;;;;;5074027;28;20027;-87
2022/01/29 01:50:08;;;;;;;16.42;8.30;;;2.60;99.90;;;;;;5072845;28;20116;-87
2022/01/29 01:52:34;;;;;;;14.25;8.27;;;2.60;99.90;;;;;;5093238;28;20107;-87
2022/01/29 01:54:59;;;;;;;16.83;8.88;;;2.60;99.90;;;;;;5076370;28;20099;-87
2022/01/29 01:57:25;;;;;;;13.63;7.82;;;2.70;99.90;;;;;;5095464;28;20044;-87
2022/01/29 01:59:51;;;;;;;15.73;8.77;;;2.70;99.90;;;;;;5076053;28;20356;-87
2022/01/29 02:02:16;;;;;;;16.05;7.95;;;2.70;99.90;;;;;;5076848;28;20069;-87
2022/01/29 02:04:42;;;;;;;13.70;8.05;;;2.60;99.90;;;;;;5075639;28;20110;-88
2022/01/29 02:07:08;;;;;;;16.48;7.97;;;2.60;99.90;;;;;;5075085;28;20092;-87
2022/01/29 02:09:34;;;;;;;15.27;8.38;;;2.60;99.90;;;;;;5094272;28;20093;-87
2022/01/29 02:12:04;;;;;;;15.93;8.32;;;2.60;99.90;;;;;;5072229;28;20381;-87
2022/01/29 02:14:32;;;;;;;18.92;8.95;;;2.60;99.90;;;;;;5065513;28;20027;-87
2022/01/29 02:16:59;;;;;;;13.38;8.30;;;2.60;99.90;;;;;;5075606;28;20043;-86
2022/01/29 02:19:26;;;;;;;21.08;8.40;;;2.60;99.90;;;;;;5074545;28;20444;-87
2022/01/29 02:21:53;;;;;;;14.55;8.15;;;2.60;99.90;;;;;;5075591;28;20042;-86
2022/01/29 02:24:18;;;;;;;19.05;8.85;;;2.60;99.90;;;;;;5074230;28;20165;-87
2022/01/29 02:26:44;;;;;;;16.60;8.38;;;2.60;99.90;;;;;;5092332;28;20024;-88
2022/01/29 02:29:09;;;;;;;20.33;9.13;;;2.60;99.90;;;;;;5068639;28;20028;-88
2022/01/29 02:31:35;;;;;;;15.98;9.00;;;2.60;99.90;;;;;;5075695;28;20444;-88
2022/01/29 02:34:03;;;;;;;17.60;8.82;;;2.60;99.90;;;;;;5074967;28;20024;-88
2022/01/29 02:36:29;;;;;;;15.25;8.85;;;2.60;99.90;;;;;;5058824;28;20108;-88
2022/01/29 02:38:54;;;;;;;14.85;8.82;;;2.60;99.90;;;;;;5061299;28;20114;-87
2022/01/29 02:41:22;;;;;;;18.20;8.98;;;2.60;99.90;;;;;;5076710;28;20123;-88
2022/01/29 02:43:49;;;;;;;17.90;9.55;;;2.60;99.90;;;;;;5075192;28;20024;-88
2022/01/29 02:48:42;;;;;;;19.38;9.82;;;2.60;99.90;;;;;;5092720;28;20102;-89
2022/01/29 02:51:09;;;;;;;18.85;10.07;;;2.60;99.90;;;;;;5092599;28;20038;-88
2022/01/29 02:53:34;;;;;;;20.67;10.32;;;2.60;99.90;;;;;;5074321;28;20025;-88
2022/01/29 02:56:00;;;;;;;19.42;10.68;;;2.50;99.90;;;;;;5092498;28;20450;-88
2022/01/29 02:58:26;;;;;;;19.80;9.88;;;2.50;99.90;;;;;;5070549;28;20137;-87
2022/01/29 03:00:52;;;;;;;20.00;10.63;;;2.60;99.90;;;;;;5075932;28;20475;-88
2022/01/29 03:03:18;;;;;;;17.70;10.32;;;2.50;99.90;;;;;;5073134;28;20024;-88
2022/01/29 03:05:44;;;;;;;21.45;10.85;;;2.50;99.90;;;;;;5074312;28;20060;-88
2022/01/29 03:08:09;;;;;;;19.38;9.85;;;2.50;99.90;;;;;;5073831;28;20032;-88
2022/01/29 03:10:35;;;;;;;19.50;10.88;;;2.50;99.90;;;;;;5085361;28;20023;-87
2022/01/29 03:13:00;;;;;;;17.20;9.75;;;2.50;99.90;;;;;;5076739;28;20063;-88
2022/01/29 03:15:27;;;;;;;21.90;10.50;;;2.40;99.90;;;;;;5083260;28;20046;-88
2022/01/29 03:17:52;;;;;;;19.98;9.98;;;2.40;99.90;;;;;;5069001;28;20040;-88
2022/01/29 03:20:18;;;;;;;21.30;10.45;;;2.40;99.90;;;;;;5074284;28;20112;-87
2022/01/29 03:22:43;;;;;;;17.95;10.43;;;2.40;99.90;;;;;;5074347;28;20031;-87
2022/01/29 03:25:09;;;;;;;18.80;10.38;;;2.40;99.90;;;;;;5077000;28;20550;-87
2022/01/29 03:27:35;;;;;;;17.30;10.07;;;2.40;99.90;;;;;;5085165;28;20039;-88
2022/01/29 03:30:02;;;;;;;21.48;10.73;;;2.40;99.90;;;;;;5087848;28;20043;-87
2022/01/29 03:32:28;;;;;;;18.67;10.52;;;2.40;99.90;;;;;;5097811;28;20070;-88
2022/01/29 03:34:53;;;;;;;19.15;10.48;;;2.30;99.90;;;;;;5066085;28;20024;-88
2022/01/29 03:37:19;;;;;;;20.52;10.52;;;2.40;99.90;;;;;;5070705;28;20452;-88
2022/01/29 03:39:46;;;;;;;20.50;10.75;;;2.30;99.90;;;;;;5067808;28;20093;-88
2022/01/29 03:42:13;;;;;;;21.08;10.13;;;2.30;99.90;;;;;;5073506;28;20115;-87
2022/01/29 03:44:39;;;;;;;19.33;10.50;;;2.30;99.90;;;;;;5074527;28;20403;-88
2022/01/29 03:47:05;;;;;;;18.55;11.18;;;2.30;99.90;;;;;;5090733;28;20080;-88
2022/01/29 03:49:31;;;;;;;20.80;11.15;;;2.30;99.90;;;;;;5072062;28;20456;-88
2022/01/29 03:51:57;;;;;;;24.65;11.30;;;2.30;99.90;;;;;;5072796;28;20034;-88
2022/01/29 03:54:22;;;;;;;20.90;11.27;;;2.20;99.90;;;;;;5069925;28;20107;-87
2022/01/29 03:56:48;;;;;;;22.70;11.95;;;2.20;99.90;;;;;;5069531;28;20028;-88
2022/01/29 03:59:14;;;;;;;24.75;11.40;;;2.30;99.90;;;;;;5069796;28;20413;-88
2022/01/29 04:01:39;;;;;;;24.95;11.43;;;2.30;99.90;;;;;;5073524;28;20450;-88
2022/01/29 04:04:05;;;;;;;23.80;11.82;;;2.30;99.90;;;;;;5091214;28;20102;-88
2022/01/29 04:06:31;;;;;;;23.95;11.50;;;2.30;99.90;;;;;;5085724;28;20123;-88
2022/01/29 04:08:57;;;;;;;20.63;10.80;;;2.30;99.90;;;;;;5086594;28;20028;-87
2022/01/29 04:11:23;;;;;;;19.95;11.18;;;2.30;99.90;;;;;;5071613;28;20035;-88
2022/01/29 04:13:49;;;;;;;22.23;11.82;;;2.30;99.90;;;;;;5066596;28;20020;-88
2022/01/29 04:16:17;;;;;;;20.52;11.00;;;2.30;99.90;;;;;;5072768;28;20028;-88
2022/01/29 04:18:43;;;;;;;20.17;10.73;;;2.30;99.90;;;;;;5068851;28;20028;-88
2022/01/29 04:21:09;;;;;;;21.58;11.07;;;2.30;99.90;;;;;;5090893;28;20024;-88
2022/01/29 04:23:36;;;;;;;22.98;11.75;;;2.30;99.90;;;;;;5101073;28;20246;-88
2022/01/29 04:26:03;;;;;;;22.42;12.20;;;2.30;99.90;;;;;;5080505;28;20028;-88
2022/01/29 04:28:33;;;;;;;24.10;11.63;;;2.30;99.90;;;;;;5073033;28;20119;-88
2022/01/29 04:31:05;;;;;;;20.95;11.50;;;2.30;99.90;;;;;;5072752;28;20027;-88
2022/01/29 04:33:31;;;;;;;23.88;11.75;;;2.30;99.90;;;;;;5064843;28;20062;-88
2022/01/29 04:35:58;;;;;;;25.15;11.60;;;2.40;99.90;;;;;;5065397;28;20025;-88
2022/01/29 04:38:25;;;;;;;21.20;11.70;;;2.40;99.90;;;;;;5072846;28;20023;-88
2022/01/29 04:40:52;;;;;;;21.40;11.38;;;2.40;99.90;;;;;;5055329;28;20110;-88
2022/01/29 04:43:17;;;;;;;21.38;12.10;;;2.40;99.90;;;;;;5074139;28;20031;-89
2022/01/29 04:45:43;;;;;;;20.02;11.38;;;2.40;99.90;;;;;;5058233;28;20024;-88
2022/01/29 04:48:09;;;;;;;19.80;11.43;;;2.40;99.90;;;;;;5092603;28;20028;-89
2022/01/29 04:50:35;;;;;;;22.55;11.80;;;2.50;99.90;;;;;;5074203;28;20028;-88
2022/01/29 04:53:00;;;;;;;22.20;11.60;;;2.50;99.90;;;;;;5091785;28;20097;-88
2022/01/29 04:55:26;;;;;;;21.08;11.70;;;2.50;99.90;;;;;;5073291;28;20055;-87
2022/01/29 04:57:51;;;;;;;18.20;10.90;;;2.50;99.90;;;;;;5055977;28;20074;-88
2022/01/29 05:00:21;;;;;;;23.05;11.70;;;2.50;99.90;;;;;;5073071;28;20016;-89
2022/01/29 05:02:53;;;;;;;20.83;11.25;;;2.50;99.90;;;;;;5092152;28;20016;-88
2022/01/29 05:05:19;;;;;;;27.27;12.88;;;2.50;99.90;;;;;;5094703;22;20613;-68
2022/01/29 05:07:44;;;;;;;21.60;11.95;;;2.50;99.90;;;;;;5088342;28;20103;-68
2022/01/29 05:10:11;;;;;;;22.88;11.60;;;2.60;99.90;;;;;;5096013;28;20031;-68
2022/01/29 05:15:25;;;;;;;22.33;12.02;;;2.60;99.90;;;;;;5109483;28;20446;-68
2022/01/29 05:28:47;;;;;;;21.25;11.60;;;2.60;99.90;;;;;;5100684;28;20077;-68
2022/01/29 05:31:13;;;;;;;19.38;11.75;;;2.60;99.90;;;;;;5102591;28;20036;-68
2022/01/29 05:33:38;;;;;;;22.67;11.55;;;2.60;99.90;;;;;;5105168;28;20057;-68
2022/01/29 05:36:04;;;;;;;20.20;12.50;;;2.60;99.90;;;;;;5084426;28;20376;-68
2022/01/29 05:38:30;;;;;;;22.58;12.65;;;2.60;99.90;;;;;;5092288;28;20121;-68
2022/01/29 05:40:56;;;;;;;24.23;11.68;;;2.60;99.90;;;;;;5097494;28;20035;-68
2022/01/29 05:43:22;;;;;;;18.73;10.88;;;2.60;99.90;;;;;;5094358;28;20020;-68
2022/01/29 05:45:47;;;;;;;22.52;12.60;;;2.60;99.90;;;;;;5102824;28;20040;-68
2022/01/29 05:48:13;;;;;;;19.50;11.98;;;2.60;99.90;;;;;;5078848;28;20142;-68
2022/01/29 05:50:39;;;;;;;20.08;12.10;;;2.60;99.90;;;;;;5110613;28;20077;-68
2022/01/29 05:53:04;;;;;;;20.98;11.57;;;2.60;99.90;;;;;;5093331;28;20042;-68
2022/01/29 05:55:30;;;;;;;21.70;11.82;;;2.60;99.90;;;;;;5098194;28;20110;-68
2022/01/29 05:57:56;;;;;;;22.45;12.70;;;2.60;99.90;;;;;;5092522;28;20028;-68
2022/01/29 06:00:21;;;;;;;21.42;12.35;;;2.50;99.90;;;;;;5093178;28;20031;-68
2022/01/29 06:02:56;;;;;;;22.85;11.52;;;2.50;99.90;;;;;;5109592;28;20024;-68
2022/01/29 06:05:22;;;;;;;22.10;11.77;;;2.50;99.90;;;;;;5107552;28;20103;-68
2022/01/29 06:07:48;;;;;;;22.67;12.30;;;2.50;99.90;;;;;;5103134;28;20031;-68
2022/01/29 06:10:14;;;;;;;20.77;12.52;;;2.50;99.90;;;;;;5112799;28;20020;-68
2022/01/29 06:12:39;;;;;;;22.60;12.00;;;2.50;99.90;;;;;;5102764;28;20484;-68
2022/01/29 06:15:05;;;;;;;21.58;11.68;;;2.50;99.90;;;;;;5093289;28;20501;-68
2022/01/29 06:17:31;;;;;;;22.73;12.50;;;2.50;99.90;;;;;;5097594;28;20024;-68
2022/01/29 06:19:56;;;;;;;23.25;11.80;;;2.50;99.90;;;;;;5107448;28;20597;-68
2022/01/29 06:22:23;;;;;;;20.15;12.02;;;2.50;99.90;;;;;;5107301;28;20024;-68
2022/01/29 06:24:49;;;;;;;20.33;11.48;;;2.50;99.90;;;;;;5075334;28;20388;-68
2022/01/29 06:27:14;;;;;;;17.67;10.60;;;2.50;99.90;;;;;;5092988;28;20146;-68
2022/01/29 06:29:40;;;;;;;19.35;10.77;;;2.40;99.90;;;;;;5111359;28;20031;-68
2022/01/29 06:32:06;;;;;;;19.50;11.23;;;2.40;99.90;;;;;;5111148;28;20107;-68
2022/01/29 06:34:31;;;;;;;19.42;10.75;;;2.40;99.90;;;;;;5111468;28;20034;-68
2022/01/29 06:36:57;;;;;;;19.80;10.02;;;2.40;99.90;;;;;;5094254;28;20032;-68
2022/01/29 06:39:23;;;;;;;15.45;9.60;;;2.40;99.90;;;;;;5083612;28;20073;-68
2022/01/29 06:41:48;;;;;;;18.58;10.07;;;2.40;99.90;;;;;;5095445;28;20035;-68
2022/01/29 06:44:14;;;;;;;18.48;9.50;;;2.40;99.90;;;;;;5101722;28;20023;-68
2022/01/29 06:46:39;;;;;;;16.95;9.32;;;2.40;99.90;;;;;;5101073;28;20024;-69
2022/01/29 06:49:05;;;;;;;15.15;9.10;;;2.40;99.90;;;;;;5100877;28;20102;-68
2022/01/29 06:51:30;;;;;;;20.83;10.60;;;2.40;99.90;;;;;;5096150;28;20080;-68
2022/01/29 06:53:56;;;;;;;20.15;9.07;;;2.40;99.90;;;;;;5099406;28;20484;-68
2022/01/29 06:56:21;;;;;;;16.83;8.57;;;2.30;99.90;;;;;;5094072;28;20027;-68
2022/01/29 06:58:47;;;;;;;15.95;8.77;;;2.30;99.90;;;;;;5101843;28;20099;-69
2022/01/29 07:01:12;;;;;;;17.77;9.27;;;2.30;99.90;;;;;;5092268;28;20670;-68
2022/01/29 07:03:38;;;;;;;16.90;8.75;;;2.30;99.90;;;;;;5074040;28;20023;-68
2022/01/29 07:06:04;;;;;;;15.15;8.68;;;2.30;99.90;;;;;;5106605;28;20077;-68
2022/01/29 07:08:29;;;;;;;15.27;9.05;;;2.30;99.90;;;;;;5077335;28;20027;-68
2022/01/29 07:10:55;;;;;;;17.17;8.88;;;2.30;99.90;;;;;;5104852;28;20084;-72
2022/01/29 07:13:21;;;;;;;15.38;8.75;;;2.30;99.90;;;;;;5104954;28;20020;-68
2022/01/29 07:15:47;;;;;;;15.00;8.55;;;2.30;99.90;;;;;;5111835;28;20039;-68
2022/01/29 07:18:12;;;;;;;16.40;8.65;;;2.30;99.90;;;;;;5109172;28;20029;-68
2022/01/29 07:20:38;;;;;;;17.05;8.43;;;2.30;99.90;;;;;;5101444;28;20032;-68
2022/01/29 07:23:06;;;;;;;16.13;9.10;;;2.30;99.90;;;;;;5096359;28;20068;-68
2022/01/29 07:25:32;;;;;;;13.23;8.13;;;2.30;99.90;;;;;;5090775;28;20020;-68
2022/01/29 07:27:58;;;;;;;15.82;8.32;;;2.30;99.90;;;;;;5106180;28;20042;-69
2022/01/29 07:30:25;;;;;;;13.13;8.05;;;2.30;99.90;;;;;;5109444;28;20502;-68
2022/01/29 07:32:50;;;;;;;16.25;8.68;;;2.30;99.90;;;;;;5105267;28;20111;-68
2022/01/29 07:35:16;;;;;;;15.57;8.73;;;2.30;99.90;;;;;;5111879;28;20098;-68
2022/01/29 07:37:41;;;;;;;14.05;8.23;;;2.30;99.90;;;;;;5097879;28;20028;-68
2022/01/29 07:40:08;;;;;;;15.98;8.68;;;2.30;99.90;;;;;;5098905;28;20059;-69
2022/01/29 07:42:34;;;;;;;14.93;7.57;;;2.40;99.90;;;;;;5101018;28;20027;-68
2022/01/29 07:44:59;;;;;;;16.75;8.23;;;2.40;99.90;;;;;;5110849;28;20420;-68
2022/01/29 07:47:25;;;;;;;15.43;9.00;;;2.40;99.90;;;;;;5105225;28;20034;-68
2022/01/29 07:49:50;;;;;;;17.02;8.60;;;2.40;99.90;;;;;;5090193;28;20058;-68
2022/01/29 07:52:16;;;;;;;16.27;9.02;;;2.40;99.90;;;;;;5091474;28;20624;-68
2022/01/29 07:54:41;;;;;;;18.20;9.63;;;2.40;99.90;;;;;;5095943;28;20527;-68
2022/01/29 07:57:07;;;;;;;17.98;9.23;;;2.50;99.90;;;;;;5092692;28;20023;-68
2022/01/29 07:59:32;;;;;;;26.20;13.73;;;2.50;99.90;;;;;;5096752;28;20031;-68
2022/01/29 08:01:58;;;;;;;19.00;10.75;;;2.50;99.90;;;;;;5093975;28;20016;-68
2022/01/29 08:04:24;;;;;;;20.58;11.23;;;2.50;99.90;;;;;;5095682;28;20030;-69
2022/01/29 08:06:51;;;;;;;25.00;13.40;;;2.60;99.90;;;;;;5108959;28;20028;-68
2022/01/29 08:09:17;;;;;;;17.52;10.02;;;2.50;99.90;;;;;;5102424;28;20028;-68
2022/01/29 08:11:42;;;;;;;21.65;10.68;;;2.60;99.90;;;;;;5097722;28;20020;-68
2022/01/29 08:14:09;;;;;;;24.25;11.65;;;2.60;99.90;;;;;;5094427;28;20073;-68
2022/01/29 08:16:34;;;;;;;18.00;11.02;;;2.60;99.90;;;;;;5104894;28;20046;-68
2022/01/29 08:19:00;;;;;;;20.85;11.45;;;2.60;99.90;;;;;;5096744;28;20459;-68
2022/01/29 08:21:26;;;;;;;19.13;10.52;;;2.60;99.90;;;;;;5093014;28;20494;-67
2022/01/29 08:23:51;;;;;;;18.13;10.93;;;2.60;99.90;;;;;;5098739;28;20030;-67
2022/01/29 08:26:17;;;;;;;22.30;11.73;;;2.60;99.90;;;;;;5109703;28;20085;-67
2022/01/29 08:28:42;;;;;;;20.58;11.48;;;2.70;99.90;;;;;;5097214;28;20035;-67
2022/01/29 08:31:08;;;;;;;22.55;12.30;;;2.70;99.90;;;;;;5102449;28;20031;-68
2022/01/29 08:33:34;;;;;;;22.83;12.50;;;2.70;99.90;;;;;;5109347;28;20096;-67
2022/01/29 08:36:02;;;;;;;19.75;11.98;;;2.70;99.90;;;;;;5106755;28;20023;-67
2022/01/29 08:38:28;;;;;;;19.52;11.65;;;2.70;99.90;;;;;;5105087;28;20028;-67
2022/01/29 08:40:54;;;;;;;25.42;11.82;;;2.70;99.90;;;;;;5105195;28;20463;-67
2022/01/29 08:43:21;;;;;;;20.25;11.55;;;2.70;99.90;;;;;;5090515;28;20433;-67
2022/01/29 08:45:49;;;;;;;21.02;11.02;;;2.70;99.90;;;;;;5098355;28;20028;-68
2022/01/29 08:48:14;;;;;;;18.83;10.43;;;2.70;99.90;;;;;;5094207;28;20182;-67
2022/01/29 08:50:40;;;;;;;21.00;11.55;;;2.80;99.90;;;;;;5089917;28;20075;-67
2022/01/29 08:53:06;;;;;;;18.00;10.68;;;2.80;99.90;;;;;;5101773;28;20567;-68
2022/01/29 08:55:36;;;;;;;16.67;9.30;;;2.80;99.90;;;;;;5096708;28;20093;-67
2022/01/29 08:58:07;;;;;;;19.00;9.95;;;2.80;99.90;;;;;;5092702;28;20027;-67
2022/01/29 09:00:36;;;;;;;19.88;10.00;;;2.90;99.90;;;;;;5093993;28;20024;-67
2022/01/29 09:03:02;;;;;;;18.48;9.85;;;2.90;99.90;;;;;;5090069;28;20023;-67
2022/01/29 09:05:28;;;;;;;19.48;10.15;;;2.90;99.90;;;;;;5082584;28;20073;-67
2022/01/29 09:07:54;;;;;;;19.05;10.43;;;2.90;99.90;;;;;;5094906;28;20028;-67
2022/01/29 09:10:20;;;;;;;19.08;10.00;;;2.90;99.90;;;;;;5092643;28;20024;-67
2022/01/29 09:12:45;;;;;;;20.88;10.75;;;2.90;99.90;;;;;;5091595;28;20111;-66
2022/01/29 09:15:11;;;;;;;15.30;9.90;;;2.90;99.90;;;;;;5096091;28;20028;-68
2022/01/29 09:17:39;;;;;;;18.60;10.63;;;2.90;99.90;;;;;;5106199;28;20115;-67
2022/01/29 09:20:06;;;;;;;18.50;9.38;;;2.80;99.90;;;;;;5097983;28;20140;-67
2022/01/29 09:22:32;;;;;;;16.27;9.57;;;2.90;99.90;;;;;;5094790;28;20024;-67
2022/01/29 09:24:57;;;;;;;18.67;10.00;;;2.80;99.90;;;;;;5098151;28;20034;-68
2022/01/29 09:27:23;;;;;;;17.10;9.98;;;2.80;99.90;;;;;;5089358;28;20524;-67
2022/01/29 09:29:49;;;;;;;17.77;10.75;;;2.80;99.90;;;;;;5090862;28;20052;-68
2022/01/29 09:32:14;;;;;;;22.23;11.25;;;2.80;99.90;;;;;;5090146;28;20040;-67
2022/01/29 09:34:40;;;;;;;20.42;10.55;;;2.80;99.90;;;;;;5095939;28;20475;-68
2022/01/29 09:37:05;;;;;;;18.15;10.05;;;2.70;99.90;;;;;;5090648;28;20065;-67
2022/01/29 09:39:31;;;;;;;23.23;10.85;;;2.70;99.90;;;;;;5099601;28;20028;-68
2022/01/29 09:41:57;;;;;;;20.75;10.25;;;2.70;99.90;;;;;;5105282;28;20028;-68
2022/01/29 09:44:22;;;;;;;23.55;11.52;;;2.70;99.90;;;;;;5094551;28;20035;-67
2022/01/29 09:46:51;;;;;;;20.27;10.15;;;2.80;99.90;;;;;;5106234;28;20411;-68
2022/01/29 09:49:17;;;;;;;18.92;10.45;;;2.80;99.90;;;;;;5070465;28;20430;-68
2022/01/29 09:51:43;;;;;;;18.63;10.50;;;2.90;99.90;;;;;;5092355;28;20028;-67
2022/01/29 09:54:09;;;;;;;19.77;11.18;;;2.90;99.90;;;;;;5108812;28;20084;-67
2022/01/29 09:56:34;;;;;;;17.98;10.07;;;2.90;99.90;;;;;;5101390;28;20024;-68
2022/01/29 09:59:01;;;;;;;17.38;9.25;;;2.90;99.90;;;;;;5090400;28;20485;-68
2022/01/29 10:01:27;;;;;;;15.90;10.07;;;2.90;99.90;;;;;;5090321;28;20043;-68
2022/01/29 10:04:04;;;;;;;20.60;10.93;;;3.00;99.90;;;;;;5109941;28;20024;-68
2022/01/29 10:06:30;;;;;;;16.90;9.57;;;3.00;99.90;;;;;;5107215;28;20085;-68
2022/01/29 10:08:56;;;;;;;17.67;10.10;;;3.00;99.90;;;;;;5103722;28;20028;-68
2022/01/29 10:11:26;;;;;;;15.60;9.55;;;3.10;99.90;;;;;;5105752;28;20055;-68
2022/01/29 10:13:57;;;;;;;18.40;9.85;;;3.10;99.90;;;;;;5096301;28;20449;-68
2022/01/29 10:16:25;;;;;;;19.15;10.35;;;3.20;99.90;;;;;;5110327;28;20031;-68
2022/01/29 10:19:00;;;;;;;15.50;9.73;;;3.20;99.90;;;;;;5109124;28;20028;-68
2022/01/29 10:21:29;;;;;;;15.40;9.20;;;3.20;99.90;;;;;;5093654;28;20052;-68
2022/01/29 10:24:04;;;;;;;15.27;9.52;;;3.20;99.90;;;;;;5104796;28;20177;-68
2022/01/29 10:26:36;;;;;;;17.65;9.68;;;3.20;99.90;;;;;;5114200;28;20506;-68
2022/01/29 10:29:08;;;;;;;20.83;11.02;;;3.20;99.90;;;;;;5113092;28;20098;-68
2022/01/29 10:31:47;;;;;;;16.70;9.27;;;3.20;99.90;;;;;;5112900;28;20038;-68
2022/01/29 10:34:25;;;;;;;17.65;10.20;;;3.20;99.90;;;;;;5105186;28;20028;-67
2022/01/29 10:37:14;;;;;;;17.65;9.50;;;3.20;99.90;;;;;;5093709;28;20059;-68
2022/01/29 10:39:41;;;;;;;15.75;9.52;;;3.20;99.90;;;;;;5100891;28;20027;-68
2022/01/29 10:42:28;;;;;;;16.52;9.68;;;3.20;99.90;;;;;;5094657;28;20020;-68
2022/01/29 10:44:56;;;;;;;19.30;10.15;;;3.20;99.90;;;;;;5110672;28;20134;-67
2022/01/29 10:47:22;;;;;;;16.70;9.95;;;3.20;99.90;;;;;;5091994;28;20043;-67
2022/01/29 10:49:57;;;;;;;21.45;10.20;;;3.20;99.90;;;;;;5094552;28;20023;-68
2022/01/29 10:52:31;;;;;;;16.65;9.95;;;3.20;99.90;;;;;;5104628;28;20024;-67
2022/01/29 10:55:07;;;;;;;20.45;10.13;;;3.20;99.90;;;;;;5094759;28;20450;-68
2022/01/29 10:57:40;;;;;;;16.15;9.63;;;3.20;99.90;;;;;;5091497;28;20073;-68
2022/01/29 11:00:09;;;;;;;16.50;9.45;;;3.30;99.90;;;;;;5097679;28;20059;-68
2022/01/29 11:02:35;;;;;;;17.17;10.18;;;3.30;99.90;;;;;;5112981;28;20047;-68
2022/01/29 11:07:30;;;;;;;15.15;9.15;;;3.40;99.90;;;;;;5101671;28;20458;-71
2022/01/29 11:09:58;;;;;;;17.48;9.00;;;3.40;99.90;;;;;;5097269;28;20123;-71
2022/01/29 11:12:25;;;;;;;15.88;9.05;;;3.40;99.90;;;;;;5099871;28;20084;-71
2022/01/29 11:14:54;;;;;;;16.13;9.25;;;3.50;99.90;;;;;;5080955;28;20078;-71
2022/01/29 11:17:22;;;;;;;15.98;8.48;;;3.50;99.90;;;;;;5072363;28;20040;-71
2022/01/29 11:19:48;;;;;;;15.88;9.50;;;3.50;99.90;;;;;;5076172;28;20058;-71
2022/01/29 11:22:20;;;;;;;21.45;9.90;;;3.50;99.90;;;;;;5080970;28;20058;-71
2022/01/29 11:24:47;;;;;;;17.50;9.48;;;3.60;99.90;;;;;;5076871;28;21588;-69
2022/01/29 11:27:26;;;;;;;16.08;8.60;;;3.60;99.90;;;;;;5081426;28;20044;-69
2022/01/29 11:30:00;;;;;;;17.83;9.93;;;3.60;99.90;;;;;;5082123;28;20540;-69
2022/01/29 11:32:53;;;;;;;16.90;9.02;;;3.60;99.90;;;;;;5085251;28;20020;-70
2022/01/29 11:35:29;;;;;;;17.45;8.65;;;3.60;99.90;;;;;;5075831;28;20115;-71
2022/01/29 11:38:06;;;;;;;16.80;9.38;;;3.60;99.90;;;;;;5089462;28;20609;-71
2022/01/29 11:40:58;;;;;;;25.92;11.48;;;3.60;99.90;;;;;;5091936;28;20028;-72
2022/01/29 11:43:26;;;;;;;21.55;10.95;;;3.70;99.90;;;;;;5073820;28;20071;-69
2022/01/29 11:46:25;;;;;;;15.45;9.00;;;3.70;99.90;;;;;;5081094;28;20542;-70
2022/01/29 11:48:52;;;;;;;28.73;15.07;;;3.70;99.90;;;;;;5077416;28;20035;-71
2022/01/29 11:51:38;;;;;;;18.88;9.02;;;3.70;99.90;;;;;;5086831;28;20015;-71
2022/01/29 11:54:04;;;;;;;15.30;8.55;;;3.80;99.90;;;;;;5085051;28;20503;-71
2022/01/29 11:56:32;;;;;;;14.18;9.05;;;3.80;99.90;;;;;;5089620;28;20135;-70
2022/01/29 11:59:20;;;;;;;13.50;8.15;;;3.80;99.90;;;;;;5070929;28;20131;-70
2022/01/29 12:01:54;;;;;;;13.52;8.50;;;3.90;99.90;;;;;;5077313;28;20020;-72
2022/01/29 12:04:22;;;;;;;14.45;8.48;;;3.90;99.90;;;;;;5074711;28;20074;-71
2022/01/29 12:07:06;;;;;;;13.23;6.97;;;4.00;99.90;;;;;;5083938;28;20040;-72
2022/01/29 12:09:47;;;;;;;20.08;10.55;;;4.10;99.90;;;;;;5088631;28;20027;-70
2022/01/29 12:12:27;;;;;;;11.27;6.93;;;4.10;99.90;;;;;;5072698;28;20028;-71
2022/01/29 12:14:57;;;;;;;12.63;7.35;;;4.20;99.90;;;;;;5088880;28;20032;-71
2022/01/29 12:17:34;;;;;;;11.60;5.80;;;4.20;99.90;;;;;;5074376;28;20024;-69
2022/01/29 12:20:01;;;;;;;9.98;5.30;;;4.30;99.90;;;;;;5081803;28;20021;-70
2022/01/29 12:22:27;;;;;;;11.18;5.38;;;4.30;99.90;;;;;;5087665;28;20019;-70
2022/01/29 12:24:56;;;;;;;8.98;5.13;;;4.40;99.90;;;;;;5084825;28;20054;-71
2022/01/29 12:27:23;;;;;;;12.40;6.50;;;4.40;99.90;;;;;;5068816;28;20030;-74
2022/01/29 12:29:49;;;;;;;7.45;4.95;;;4.50;99.90;;;;;;5079761;28;20024;-74
2022/01/29 12:32:15;;;;;;;8.38;5.30;;;4.50;99.90;;;;;;5082481;28;20115;-73
2022/01/29 12:34:51;;;;;;;8.00;5.30;;;4.60;99.90;;;;;;5084924;28;20028;-71
2022/01/29 12:37:20;;;;;;;9.38;5.55;;;4.60;99.90;;;;;;5080628;28;20834;-73
2022/01/29 12:39:48;;;;;;;8.13;5.15;;;4.70;99.90;;;;;;5083711;28;20077;-73
2022/01/29 12:44:41;;;;;;;4.78;3.45;;;4.70;99.90;;;;;;5086723;28;20032;-71
2022/01/29 12:47:27;;;;;;;9.90;5.57;;;4.80;99.90;;;;;;5082305;28;20028;-71
2022/01/29 12:49:53;;;;;;;4.97;3.83;;;4.80;99.90;;;;;;5072699;28;20035;-71
2022/01/29 12:52:19;;;;;;;6.95;4.63;;;4.80;99.90;;;;;;5090111;28;20012;-72
2022/01/29 12:54:59;;;;;;;5.00;3.30;;;4.90;99.90;;;;;;5090132;28;20050;-72
2022/01/29 12:57:39;;;;;;;8.13;5.28;;;4.90;99.90;;;;;;5089987;28;20031;-72
2022/01/29 13:00:13;;;;;;;4.18;3.50;;;5.00;99.90;;;;;;5070553;28;20511;-73
2022/01/29 13:02:39;;;;;;;3.10;2.80;;;5.00;99.90;;;;;;5086052;28;20114;-70
2022/01/29 13:05:05;;;;;;;3.40;2.83;;;5.00;99.90;;;;;;5058360;28;20155;-70